createdAt,value
2023-05-14T00:00:54.626Z,100767.75
2023-05-14T00:05:04.172Z,100767.15
2023-05-14T00:09:06.148Z,100766.19
2023-05-14T00:13:08.134Z,100767.15
2023-05-14T00:17:10.249Z,100764.28
2023-05-14T00:21:12.581Z,100764.08
2023-05-14T00:25:14.515Z,100767.11
2023-05-14T00:29:16.554Z,100762.18
2023-05-14T00:33:18.816Z,100756.86
2023-05-14T00:37:20.813Z,100756.64
2023-05-14T00:41:23.096Z,100753.48
2023-05-14T00:45:25.553Z,100754.70
2023-05-14T00:49:28.278Z,100753.84
2023-05-14T00:53:30.761Z,100750.71
2023-05-14T00:57:35.627Z,100753.80
2023-05-14T01:01:37.714Z,100754.69
2023-05-14T01:05:55.978Z,100757.52
2023-05-14T01:10:08.571Z,100751.61
2023-05-14T01:14:22.837Z,100744.27
2023-05-14T01:18:25.648Z,100740.44
2023-05-14T01:22:27.605Z,100743.44
2023-05-14T01:26:31.131Z,100747.62
2023-05-14T01:30:43.071Z,100749.43
2023-05-14T01:34:48.336Z,100745.50
2023-05-14T01:38:51.340Z,100742.30
2023-05-14T01:42:56.052Z,100744.23
2023-05-14T01:46:57.998Z,100745.52
2023-05-14T01:51:00.110Z,100742.28
2023-05-14T01:55:02.156Z,100738.20
2023-05-14T01:59:04.158Z,100735.13
2023-05-14T02:03:06.222Z,100728.70
2023-05-14T02:07:08.228Z,100728.63
2023-05-14T02:11:10.150Z,100725.24
2023-05-14T02:15:12.239Z,100717.91
2023-05-14T02:19:14.222Z,100722.77
2023-05-14T02:23:16.285Z,100717.75
2023-05-14T02:27:19.315Z,100711.73
2023-05-14T02:31:21.340Z,100710.09
2023-05-14T02:35:23.352Z,100717.69
2023-05-14T02:39:25.316Z,100712.91
2023-05-14T02:43:27.364Z,100712.77
2023-05-14T02:47:29.438Z,100715.55
2023-05-14T02:51:31.555Z,100714.30
2023-05-14T02:55:33.835Z,100713.04
2023-05-14T02:59:35.914Z,100718.41
2023-05-14T03:03:38.083Z,100714.58
2023-05-14T03:07:40.523Z,100716.28
2023-05-14T03:11:42.452Z,100715.50
2023-05-14T03:15:44.366Z,100714.76
2023-05-14T03:19:46.376Z,100718.71
2023-05-14T03:23:48.296Z,100721.98
2023-05-14T03:27:50.249Z,100711.78
2023-05-14T03:31:53.911Z,100709.55
2023-05-14T03:35:55.903Z,100708.64
2023-05-14T03:39:58.378Z,100708.87
2023-05-14T03:44:00.601Z,100711.34
2023-05-14T03:48:03.174Z,100711.23
2023-05-14T03:52:06.193Z,100702.17
2023-05-14T03:56:08.110Z,100702.44
2023-05-14T04:00:11.025Z,100694.39
2023-05-14T04:04:19.288Z,100695.25
2023-05-14T04:08:21.204Z,100701.99
2023-05-14T04:12:24.641Z,100701.93
2023-05-14T04:16:26.627Z,100705.38
2023-05-14T04:20:28.699Z,100708.33
2023-05-14T04:24:30.776Z,100712.27
2023-05-14T04:28:32.735Z,100717.73
2023-05-14T04:32:34.996Z,100720.77
2023-05-14T04:36:37.016Z,100721.95
2023-05-14T04:40:39.094Z,100716.27
2023-05-14T04:44:41.139Z,100718.20
2023-05-14T04:48:43.157Z,100713.29
2023-05-14T04:52:45.246Z,100714.55
2023-05-14T04:56:47.317Z,100710.30
2023-05-14T05:00:49.985Z,100709.86
2023-05-14T05:04:52.055Z,100709.90
2023-05-14T05:08:55.669Z,100713.36
2023-05-14T05:12:57.687Z,100709.77
2023-05-14T05:16:59.655Z,100712.20
2023-05-14T05:21:01.587Z,100713.52
2023-05-14T05:25:07.731Z,100708.19
2023-05-14T05:29:09.843Z,100709.66
2023-05-14T05:33:12.538Z,100706.40
2023-05-14T05:37:14.700Z,100702.47
2023-05-14T05:41:16.906Z,100706.02
2023-05-14T05:45:18.911Z,100702.44
2023-05-14T05:49:21.130Z,100700.60
2023-05-14T05:53:23.229Z,100701.69
2023-05-14T05:57:29.460Z,100705.55
2023-05-14T06:01:32.500Z,100703.29
2023-05-14T06:05:34.684Z,100697.70
2023-05-14T06:09:36.858Z,100695.23
2023-05-14T06:13:38.986Z,100694.75
2023-05-14T06:17:41.095Z,100695.58
2023-05-14T06:21:43.842Z,100694.26
2023-05-14T06:25:45.856Z,100693.55
2023-05-14T06:29:48.161Z,100691.36
2023-05-14T06:33:50.195Z,100692.45
2023-05-14T06:37:52.673Z,100691.02
2023-05-14T06:41:54.895Z,100691.17
2023-05-14T06:45:58.109Z,100690.69
2023-05-14T06:50:01.472Z,100686.54
2023-05-14T06:54:03.691Z,100686.64
2023-05-14T06:58:09.170Z,100682.20
2023-05-14T07:02:12.141Z,100686.27
2023-05-14T07:06:14.185Z,100684.73
2023-05-14T07:10:16.323Z,100687.33
2023-05-14T07:14:18.553Z,100686.36
2023-05-14T07:18:20.610Z,100681.04
2023-05-14T07:22:22.525Z,100679.10
2023-05-14T07:26:24.575Z,100672.14
2023-05-14T07:30:26.718Z,100670.39
2023-05-14T07:34:28.727Z,100668.09
2023-05-14T07:38:31.250Z,100664.65
2023-05-14T07:42:37.035Z,100658.56
2023-05-14T07:46:39.484Z,100656.67
2023-05-14T07:50:41.383Z,100654.73
2023-05-14T07:54:43.288Z,100652.00
2023-05-14T07:58:45.736Z,100646.84
2023-05-14T08:02:48.743Z,100638.38
2023-05-14T08:06:51.172Z,100634.38
2023-05-14T08:10:53.166Z,100633.90
2023-05-14T08:14:55.794Z,100625.67
2023-05-14T08:18:57.849Z,100626.02
2023-05-14T08:22:59.903Z,100619.35
2023-05-14T08:27:01.947Z,100618.65
2023-05-14T08:31:04.277Z,100618.26
2023-05-14T08:35:06.858Z,100620.13
2023-05-14T08:39:08.788Z,100619.35
2023-05-14T08:43:11.789Z,100616.29
2023-05-14T08:47:15.678Z,100609.29
2023-05-14T08:51:17.626Z,100608.89
2023-05-14T08:55:19.939Z,100613.06
2023-05-14T08:59:22.050Z,100610.42
2023-05-14T09:03:24.013Z,100604.38
2023-05-14T09:07:26.366Z,100607.06
2023-05-14T09:11:28.362Z,100601.38
2023-05-14T09:15:31.402Z,100599.63
2023-05-14T09:19:33.387Z,100596.57
2023-05-14T09:23:35.528Z,100592.81
2023-05-14T09:27:38.374Z,100595.42
2023-05-14T09:31:40.781Z,100597.91
2023-05-14T09:35:43.118Z,100597.40
2023-05-14T09:39:45.100Z,100595.67
2023-05-14T09:43:47.042Z,100590.67
2023-05-14T09:47:49.089Z,100586.60
2023-05-14T09:51:51.287Z,100580.14
2023-05-14T09:55:53.169Z,100585.14
2023-05-14T09:59:55.254Z,100575.40
2023-05-14T10:03:57.229Z,100575.58
2023-05-14T10:08:03.497Z,100571.44
2023-05-14T10:12:06.409Z,100561.72
2023-05-14T10:16:17.736Z,100561.05
2023-05-14T10:20:22.418Z,100549.41
2023-05-14T10:24:25.403Z,100554.27
2023-05-14T10:28:27.975Z,100553.06
2023-05-14T10:32:32.739Z,100556.24
2023-05-14T10:36:35.273Z,100548.91
2023-05-14T10:40:38.820Z,100539.02
2023-05-14T10:44:48.693Z,100527.23
2023-05-14T10:48:50.654Z,100528.64
2023-05-14T10:52:52.699Z,100513.80
2023-05-14T10:56:58.774Z,100503.84
2023-05-14T11:01:01.768Z,100501.30
2023-05-14T11:05:13.581Z,100494.52
2023-05-14T11:09:17.365Z,100493.05
2023-05-14T11:13:19.595Z,100479.63
2023-05-14T11:17:21.891Z,100466.23
2023-05-14T11:21:23.963Z,100460.35
2023-05-14T11:25:25.986Z,100458.57
2023-05-14T11:29:28.073Z,100453.48
2023-05-14T11:33:30.065Z,100443.71
2023-05-14T11:37:32.067Z,100441.30
2023-05-14T11:41:34.070Z,100437.44
2023-05-14T11:45:36.480Z,100439.80
2023-05-14T11:49:38.574Z,100429.23
2023-05-14T11:53:40.595Z,100425.39
2023-05-14T11:57:42.659Z,100420.56
2023-05-14T12:01:49.552Z,100411.62
2023-05-14T12:06:00.411Z,100407.64
2023-05-14T12:10:03.646Z,100398.85
2023-05-14T12:14:19.211Z,100394.30
2023-05-14T12:18:24.929Z,100391.08
2023-05-14T12:22:29.397Z,100381.14
2023-05-14T12:26:34.474Z,100376.98
2023-05-14T12:30:39.378Z,100384.84
2023-05-14T12:34:41.250Z,100381.14
2023-05-14T12:38:43.906Z,100370.35
2023-05-14T12:42:45.866Z,100367.98
2023-05-14T12:46:47.818Z,100364.28
2023-05-14T12:50:49.875Z,100361.55
2023-05-14T12:54:51.747Z,100354.30
2023-05-14T12:58:55.856Z,100352.06
2023-05-14T13:02:57.764Z,100360.17
2023-05-14T13:06:59.807Z,100350.98
2023-05-14T13:11:01.767Z,100343.64
2023-05-14T13:15:04.878Z,100332.70
2023-05-14T13:19:06.974Z,100325.16
2023-05-14T13:23:09.099Z,100332.69
2023-05-14T13:27:11.279Z,100330.59
2023-05-14T13:31:16.649Z,100324.94
2023-05-14T13:35:18.771Z,100312.77
2023-05-14T13:39:22.299Z,100310.89
2023-05-14T13:43:24.278Z,100306.91
2023-05-14T13:47:26.400Z,100300.21
2023-05-14T13:51:28.368Z,100300.64
2023-05-14T13:55:30.288Z,100295.45
2023-05-14T13:59:32.504Z,100292.77
2023-05-14T14:03:34.371Z,100290.24
2023-05-14T14:07:36.354Z,100282.39
2023-05-14T14:11:38.828Z,100282.15
2023-05-14T14:15:40.746Z,100279.94
2023-05-14T14:19:42.648Z,100273.23
2023-05-14T14:23:48.053Z,100265.92
2023-05-14T14:27:50.629Z,100255.17
2023-05-14T14:31:52.585Z,100253.13
2023-05-14T14:35:54.494Z,100253.40
2023-05-14T14:39:56.416Z,100250.70
2023-05-14T14:43:58.499Z,100243.96
2023-05-14T14:48:22.267Z,100242.77
2023-05-14T14:52:25.659Z,100234.34
2023-05-14T14:56:27.638Z,100226.58
2023-05-14T15:00:29.797Z,100223.60
2023-05-14T15:04:33.686Z,100220.45
2023-05-14T15:08:35.613Z,100211.78
2023-05-14T15:12:37.825Z,100210.23
2023-05-14T15:16:39.783Z,100212.58
2023-05-14T15:20:41.755Z,100211.44
2023-05-14T15:24:43.613Z,100212.58
2023-05-14T15:28:45.526Z,100203.58
2023-05-14T15:32:47.498Z,100210.52
2023-05-14T15:36:49.393Z,100208.16
2023-05-14T15:40:51.304Z,100210.28
2023-05-14T15:44:53.245Z,100206.06
2023-05-14T15:48:55.136Z,100196.63
2023-05-14T15:52:57.099Z,100195.88
2023-05-14T15:56:58.997Z,100189.80
2023-05-14T16:01:02.243Z,100184.36
2023-05-14T16:05:04.482Z,100184.38
2023-05-14T16:09:06.511Z,100178.95
2023-05-14T16:13:08.403Z,100171.25
2023-05-14T16:17:10.690Z,100165.83
2023-05-14T16:21:12.712Z,100161.66
2023-05-14T16:25:14.646Z,100160.98
2023-05-14T16:29:16.650Z,100152.96
2023-05-14T16:33:18.580Z,100144.16
2023-05-14T16:37:20.650Z,100141.52
2023-05-14T16:41:22.452Z,100134.80
2023-05-14T16:45:24.618Z,100134.95
2023-05-14T16:49:26.904Z,100130.64
2023-05-14T16:53:28.857Z,100126.22
2023-05-14T16:57:31.106Z,100121.88
2023-05-14T17:01:33.316Z,100112.90
2023-05-14T17:05:35.316Z,100117.20
2023-05-14T17:09:38.014Z,100115.37
2023-05-14T17:13:39.900Z,100113.81
2023-05-14T17:17:50.327Z,100113.20
2023-05-14T17:21:52.508Z,100113.62
2023-05-14T17:25:56.121Z,100120.35
2023-05-14T17:29:58.091Z,100118.29
2023-05-14T17:34:00.311Z,100118.14
2023-05-14T17:38:02.778Z,100115.88
2023-05-14T17:42:05.691Z,100111.04
2023-05-14T17:46:07.577Z,100103.41
2023-05-14T17:50:09.925Z,100098.71
2023-05-14T17:54:11.818Z,100104.62
2023-05-14T17:58:16.349Z,100105.54
2023-05-14T18:02:18.224Z,100105.15
2023-05-14T18:06:20.301Z,100098.05
2023-05-14T18:10:22.192Z,100097.20
2023-05-14T18:14:24.032Z,100094.66
2023-05-14T18:18:26.304Z,100097.83
2023-05-14T18:22:28.197Z,100091.81
2023-05-14T18:26:31.265Z,100089.23
2023-05-14T18:30:34.885Z,100089.08
2023-05-14T18:34:36.793Z,100090.67
2023-05-14T18:38:40.326Z,100090.71
2023-05-14T18:42:42.368Z,100095.79
2023-05-14T18:46:44.398Z,100095.93
2023-05-14T18:50:46.653Z,100087.30
2023-05-14T18:54:48.542Z,100089.08
2023-05-14T18:58:52.275Z,100092.13
2023-05-14T19:02:54.359Z,100095.16
2023-05-14T19:06:56.411Z,100093.65
2023-05-14T19:10:58.307Z,100088.63
2023-05-14T19:15:00.659Z,100080.23
2023-05-14T19:19:02.898Z,100077.12
2023-05-14T19:23:04.967Z,100072.83
2023-05-14T19:27:07.617Z,100071.41
2023-05-14T19:31:10.640Z,100070.92
2023-05-14T19:35:13.740Z,100070.90
2023-05-14T19:39:15.944Z,100066.92
2023-05-14T19:43:18.116Z,100069.36
2023-05-14T19:47:20.174Z,100068.21
2023-05-14T19:51:22.205Z,100067.08
2023-05-14T19:55:24.805Z,100067.23
2023-05-14T19:59:29.017Z,100065.95
2023-05-14T20:03:31.725Z,100064.02
2023-05-14T20:07:39.610Z,100059.90
2023-05-14T20:11:42.305Z,100062.01
2023-05-14T20:15:45.683Z,100062.08
2023-05-14T20:19:47.814Z,100052.92
2023-05-14T20:23:49.751Z,100049.67
2023-05-14T20:27:52.112Z,100044.45
2023-05-14T20:31:54.078Z,100043.90
2023-05-14T20:35:56.103Z,100039.83
2023-05-14T20:39:59.314Z,100034.77
2023-05-14T20:44:01.427Z,100027.31
2023-05-14T20:48:09.292Z,100025.13
2023-05-14T20:52:12.461Z,100019.67
2023-05-14T20:56:14.414Z,100016.09
2023-05-14T21:00:16.871Z,100014.02
2023-05-14T21:04:19.107Z,100009.22
2023-05-14T21:08:21.162Z,100005.89
2023-05-14T21:12:23.055Z,100002.42
2023-05-14T21:16:25.297Z,99995.43
2023-05-14T21:20:27.280Z,99992.13
2023-05-14T21:24:29.176Z,99993.86
2023-05-14T21:28:32.455Z,99989.20
2023-05-14T21:32:34.458Z,99990.02
2023-05-14T21:36:36.710Z,99989.30
2023-05-14T21:40:38.689Z,99986.96
2023-05-14T21:44:40.580Z,99979.73
2023-05-14T21:48:42.669Z,99984.95
2023-05-14T21:52:44.621Z,99983.44
2023-05-14T21:56:46.848Z,99985.59
2023-05-14T22:00:49.005Z,99981.43
2023-05-14T22:04:50.969Z,99976.53
2023-05-14T22:08:53.143Z,99976.75
2023-05-14T22:12:55.262Z,99967.41
2023-05-14T22:16:57.255Z,99967.26
2023-05-14T22:20:59.835Z,99962.47
2023-05-14T22:25:03.015Z,99960.56
2023-05-14T22:29:05.128Z,99959.98
2023-05-14T22:33:07.072Z,99949.42
2023-05-14T22:37:09.040Z,99944.95
2023-05-14T22:41:11.091Z,99936.34
2023-05-14T22:45:13.133Z,99923.41
2023-05-14T22:49:15.438Z,99918.08
2023-05-14T22:53:17.734Z,99911.95
2023-05-14T22:57:19.873Z,99905.42
2023-05-14T23:01:21.964Z,99901.14
2023-05-14T23:05:24.271Z,99895.09
2023-05-14T23:09:26.587Z,99884.92
2023-05-14T23:13:28.524Z,99880.06
2023-05-14T23:17:30.488Z,99871.88
2023-05-14T23:21:32.557Z,99861.96
2023-05-14T23:25:34.485Z,99860.96
2023-05-14T23:29:36.540Z,99856.31
2023-05-14T23:33:39.497Z,99854.44
2023-05-14T23:37:46.531Z,99853.25
2023-05-14T23:41:48.408Z,99843.77
2023-05-14T23:45:50.356Z,99838.91
2023-05-14T23:49:52.323Z,99832.09
2023-05-14T23:53:57.899Z,99830.11
2023-05-14T23:57:59.907Z,99822.77
